TimeCDT,TemperatureF,Dew PointF,Humidity,Sea Level PressureIn,VisibilityMPH,Wind Direction,Wind SpeedMPH,Gust SpeedMPH,PrecipitationIn,Events,Conditions,WindDirDegrees,DateUTC
12:58 AM,72.0,68.0,87,30.06,10.0,Calm,Calm,-,N/A,,Clear,0,2013-08-28 05:58:00
1:58 AM,70.0,68.0,93,30.04,9.0,Calm,Calm,-,N/A,,Clear,0,2013-08-28 06:58:00
2:58 AM,69.1,66.9,93,30.04,8.0,Calm,Calm,-,N/A,,Clear,0,2013-08-28 07:58:00
3:58 AM,69.1,66.9,93,30.03,9.0,North,3.5,-,N/A,,Clear,10,2013-08-28 08:58:00
4:58 AM,68.0,66.0,93,30.03,8.0,Calm,Calm,-,N/A,,Clear,0,2013-08-28 09:58:00
5:58 AM,68.0,66.0,93,30.04,8.0,Calm,Calm,-,N/A,,Clear,0,2013-08-28 10:58:00
6:58 AM,70.0,66.9,90,30.07,8.0,North,3.5,-,N/A,,Clear,10,2013-08-28 11:58:00
7:58 AM,73.9,66.9,79,30.08,10.0,NNE,4.6,-,N/A,,Clear,20,2013-08-28 12:58:00
8:58 AM,78.1,69.1,74,30.09,10.0,NNE,4.6,-,N/A,,Scattered Clouds,20,2013-08-28 13:58:00
9:58 AM,84.0,68.0,58,30.10,10.0,NE,6.9,-,N/A,,Clear,40,2013-08-28 14:58:00
10:58 AM,86.0,66.0,51,30.09,10.0,East,3.5,-,N/A,,Clear,80,2013-08-28 15:58:00
11:58 AM,87.1,66.9,51,30.09,10.0,East,5.8,-,N/A,,Clear,90,2013-08-28 16:58:00
12:58 PM,89.1,66.0,46,30.08,10.0,Calm,Calm,-,N/A,,Clear,0,2013-08-28 17:58:00
1:58 PM,89.1,68.0,50,30.06,10.0,NNE,8.1,-,N/A,,Partly Cloudy,20,2013-08-28 18:58:00
2:58 PM,89.1,66.0,46,30.04,10.0,Variable,3.5,-,N/A,,Partly Cloudy,0,2013-08-28 19:58:00
3:58 PM,87.1,68.0,53,30.02,10.0,North,5.8,-,N/A,,Scattered Clouds,360,2013-08-28 20:58:00
4:58 PM,89.1,66.0,46,30.02,10.0,Variable,3.5,-,N/A,,Clear,0,2013-08-28 21:58:00
5:58 PM,87.1,66.9,51,30.02,10.0,North,3.5,-,N/A,,Scattered Clouds,360,2013-08-28 22:58:00
6:58 PM,82.9,69.1,63,30.02,10.0,Calm,Calm,-,N/A,,Clear,0,2013-08-28 23:58:00
7:58 PM,78.1,72.0,81,30.03,10.0,Calm,Calm,-,N/A,,Scattered Clouds,0,2013-08-29 00:58:00
8:58 PM,75.9,71.1,85,30.04,10.0,Calm,Calm,-,N/A,,Clear,0,2013-08-29 01:58:00
9:58 PM,75.0,71.1,87,30.05,10.0,Calm,Calm,-,N/A,,Mostly Cloudy,0,2013-08-29 02:58:00
10:58 PM,73.9,71.1,91,30.06,10.0,Calm,Calm,-,N/A,,Clear,0,2013-08-29 03:58:00
11:58 PM,73.0,70.0,90,30.06,10.0,Calm,Calm,-,N/A,,Clear,0,2013-08-29 04:58:00